Terminal Aerodrome Forecast
Issued by NWS

Current Version | Previous Version | Text Only | Print | Product List | Glossary Off
Versions: 1 2 3 4 5 6 7 8 9 10 11 12 13 14 15 16 17 18 19 20 21 22 23

000
FTUS44 KOHX 271500 AAA
TAFCKV
TAF AMD
KCKV 271509Z 2715/2812 32012G18KT P6SM OVC018
     FM271900 31010KT P6SM SCT050
     FM280000 32004KT P6SM SKC
     FM280500 33004KT P6SM OVC090=

USA.gov is the U.S. government's official web portal to all federal, state and local government web resources and services.